createdAt,value
2023-05-10T00:01:18.594Z,4.53
2023-05-10T00:03:45.500Z,6.22
2023-05-10T00:06:12.067Z,5.35
2023-05-10T00:08:38.970Z,5.68
2023-05-10T00:11:05.552Z,4.07
2023-05-10T00:13:32.332Z,6.65
2023-05-10T00:15:59.028Z,4.70
2023-05-10T00:18:25.700Z,6.05
2023-05-10T00:20:52.320Z,4.00
2023-05-10T00:23:19.000Z,6.35
2023-05-10T00:25:45.736Z,5.20
2023-05-10T00:28:12.412Z,4.60
2023-05-10T00:30:39.082Z,10.80
2023-05-10T00:33:05.849Z,8.75
2023-05-10T00:35:32.526Z,6.97
2023-05-10T00:37:59.284Z,8.48
2023-05-10T00:40:26.137Z,3.78
2023-05-10T00:42:53.246Z,5.95
2023-05-10T00:45:20.201Z,4.88
2023-05-10T00:47:47.121Z,3.53
2023-05-10T00:50:15.490Z,4.75
2023-05-10T00:52:43.735Z,3.25
2023-05-10T00:55:12.416Z,4.50
2023-05-10T00:57:39.752Z,6.10
2023-05-10T01:00:08.216Z,5.45
2023-05-10T01:02:36.090Z,5.78
2023-05-10T01:05:04.498Z,6.47
2023-05-10T01:07:31.328Z,4.35
2023-05-10T01:09:58.713Z,6.88
2023-05-10T01:12:26.178Z,4.68
2023-05-10T01:14:53.212Z,5.40
2023-05-10T01:17:21.798Z,4.30
2023-05-10T01:19:48.659Z,5.20
2023-05-10T01:22:33.375Z,6.95
2023-05-10T01:25:27.663Z,5.50
2023-05-10T01:31:07.238Z,6.72
2023-05-10T01:33:44.042Z,7.00
2023-05-10T01:36:27.173Z,5.30
2023-05-10T01:39:16.810Z,6.60
2023-05-10T01:41:53.910Z,6.18
2023-05-10T01:44:54.899Z,6.18
2023-05-10T01:47:47.748Z,5.57
2023-05-10T01:50:25.558Z,7.03
2023-05-10T01:52:55.595Z,7.43
2023-05-10T01:55:27.429Z,4.90
2023-05-10T01:58:03.036Z,5.95
2023-05-10T02:00:31.274Z,6.03
2023-05-10T02:02:58.290Z,7.82
2023-05-10T02:05:25.481Z,3.70
2023-05-10T02:07:53.236Z,6.00
2023-05-10T02:10:20.868Z,6.20
2023-05-10T02:12:50.684Z,4.10
2023-05-10T02:15:22.975Z,5.35
2023-05-10T02:17:50.478Z,6.53
2023-05-10T02:20:20.221Z,8.70
2023-05-10T02:22:50.148Z,6.28
2023-05-10T02:25:20.257Z,5.18
2023-05-10T02:27:48.358Z,5.20
2023-05-10T02:30:16.755Z,4.57
2023-05-10T02:32:44.960Z,5.05
2023-05-10T02:35:12.038Z,4.70
2023-05-10T02:37:40.637Z,4.85
2023-05-10T02:40:08.864Z,5.30
2023-05-10T02:42:38.551Z,5.13
2023-05-10T02:47:36.271Z,4.22
2023-05-10T02:50:03.614Z,5.22
2023-05-10T02:52:37.695Z,4.82
2023-05-10T02:55:06.828Z,5.53
2023-05-10T02:57:35.112Z,6.38
2023-05-10T03:00:05.940Z,4.72
2023-05-10T03:02:32.879Z,6.10
2023-05-10T03:04:59.670Z,5.75
2023-05-10T03:07:26.658Z,4.13
2023-05-10T03:09:53.502Z,4.63
2023-05-10T03:12:34.395Z,8.43
2023-05-10T03:15:09.742Z,4.93
2023-05-10T03:17:47.712Z,4.68
2023-05-10T03:20:38.310Z,4.50
2023-05-10T03:23:27.700Z,4.60
2023-05-10T03:25:55.361Z,4.80
2023-05-10T03:28:22.935Z,4.00
2023-05-10T03:30:50.746Z,4.85
2023-05-10T03:33:17.664Z,6.00
2023-05-10T03:35:46.587Z,6.55
2023-05-10T03:38:14.705Z,3.72
2023-05-10T03:40:41.558Z,4.60
2023-05-10T03:43:08.207Z,4.65
2023-05-10T03:45:34.957Z,6.38
2023-05-10T03:48:01.641Z,4.75
2023-05-10T03:50:28.513Z,5.72
2023-05-10T03:52:55.203Z,9.18
2023-05-10T03:55:22.006Z,6.93
2023-05-10T03:57:50.435Z,6.53
2023-05-10T04:00:17.603Z,5.50
2023-05-10T04:02:46.066Z,6.82
2023-05-10T04:05:13.792Z,9.90
2023-05-10T04:07:40.588Z,5.88
2023-05-10T04:10:07.932Z,6.95
2023-05-10T04:12:34.596Z,7.75
2023-05-10T04:15:01.323Z,5.00
2023-05-10T04:17:28.013Z,4.90
2023-05-10T04:19:55.645Z,7.97
2023-05-10T04:22:22.402Z,6.82
2023-05-10T04:24:49.069Z,4.63
2023-05-10T04:27:16.059Z,8.65
2023-05-10T04:29:42.808Z,5.38
2023-05-10T04:32:11.003Z,5.32
2023-05-10T04:34:38.332Z,5.47
2023-05-10T04:37:05.343Z,6.82
2023-05-10T04:39:32.066Z,5.55
2023-05-10T04:41:58.739Z,6.78
2023-05-10T04:44:25.428Z,4.90
2023-05-10T04:46:52.069Z,5.45
2023-05-10T04:49:18.878Z,4.25
2023-05-10T04:51:45.612Z,5.10
2023-05-10T04:54:12.266Z,9.57
2023-05-10T04:56:38.969Z,4.85
2023-05-10T04:59:05.714Z,6.93
2023-05-10T05:01:32.486Z,8.07
2023-05-10T05:03:59.586Z,9.63
2023-05-10T05:06:28.000Z,8.35
2023-05-10T05:08:54.700Z,6.45
2023-05-10T05:11:21.990Z,9.57
2023-05-10T05:14:00.055Z,11.50
2023-05-10T05:16:27.771Z,6.18
2023-05-10T05:18:54.338Z,6.68
2023-05-10T05:21:21.189Z,7.63
2023-05-10T05:23:47.765Z,6.18
2023-05-10T05:26:14.310Z,7.28
2023-05-10T05:28:40.885Z,8.32
2023-05-10T05:31:08.768Z,6.95
2023-05-10T05:33:35.626Z,6.65
2023-05-10T05:36:03.713Z,4.32
2023-05-10T05:38:30.258Z,9.43
2023-05-10T05:40:56.841Z,6.85
2023-05-10T05:43:23.513Z,10.07
2023-05-10T05:45:50.618Z,7.35
2023-05-10T05:48:17.218Z,5.80
2023-05-10T05:50:43.678Z,4.28
2023-05-10T05:53:10.200Z,6.97
2023-05-10T05:55:36.804Z,8.55
2023-05-10T05:58:03.550Z,6.50
2023-05-10T06:00:30.025Z,5.10
2023-05-10T06:02:56.825Z,10.05
2023-05-10T06:05:23.403Z,13.52
2023-05-10T06:07:49.882Z,6.95
2023-05-10T06:10:16.348Z,5.65
2023-05-10T06:12:42.837Z,8.57
2023-05-10T06:15:10.074Z,10.10
2023-05-10T06:17:36.646Z,4.65
2023-05-10T06:20:03.425Z,7.78
2023-05-10T06:22:29.990Z,9.27
2023-05-10T06:24:56.524Z,7.68
2023-05-10T06:27:23.068Z,5.85
2023-05-10T06:29:52.152Z,7.55
2023-05-10T06:32:20.862Z,5.43
2023-05-10T06:34:47.546Z,6.85
2023-05-10T06:37:13.978Z,7.72
2023-05-10T06:39:40.479Z,5.85
2023-05-10T06:42:07.060Z,7.53
2023-05-10T06:44:33.556Z,12.38
2023-05-10T06:47:00.288Z,6.93
2023-05-10T06:49:26.889Z,10.43
2023-05-10T06:51:53.500Z,5.28
2023-05-10T06:54:20.163Z,4.45
2023-05-10T06:56:46.632Z,6.57
2023-05-10T06:59:14.476Z,6.20
2023-05-10T07:01:41.370Z,5.63
2023-05-10T07:04:08.519Z,5.38
2023-05-10T07:06:35.063Z,11.57
2023-05-10T07:09:01.718Z,5.72
2023-05-10T07:11:28.227Z,4.80
2023-05-10T07:13:54.699Z,7.85
2023-05-10T07:16:22.353Z,8.90
2023-05-10T07:18:49.157Z,8.18
2023-05-10T07:21:15.875Z,5.50
2023-05-10T07:23:44.847Z,6.63
2023-05-10T07:26:12.305Z,5.93
2023-05-10T07:28:39.116Z,5.82
2023-05-10T07:31:05.907Z,10.40
2023-05-10T07:33:32.636Z,10.95
2023-05-10T07:35:59.408Z,10.52
2023-05-10T07:38:26.116Z,5.70
2023-05-10T07:40:52.749Z,7.07
2023-05-10T07:43:19.492Z,8.60
2023-05-10T07:45:46.172Z,7.60
2023-05-10T07:48:12.820Z,5.97
2023-05-10T07:50:39.541Z,6.90
2023-05-10T07:53:06.203Z,8.88
2023-05-10T07:55:33.008Z,5.72
2023-05-10T07:58:11.026Z,7.32
2023-05-10T08:00:53.313Z,7.35
2023-05-10T08:03:19.969Z,6.50
2023-05-10T08:05:46.626Z,6.28
2023-05-10T08:08:13.068Z,5.20
2023-05-10T08:10:39.577Z,6.55
2023-05-10T08:13:06.131Z,9.02
2023-05-10T08:15:32.676Z,5.03
2023-05-10T08:17:59.256Z,7.50
2023-05-10T08:20:25.849Z,6.68
2023-05-10T08:22:52.401Z,10.63
2023-05-10T08:25:19.023Z,6.80
2023-05-10T08:27:45.802Z,9.27
2023-05-10T08:30:13.006Z,6.40
2023-05-10T08:32:39.617Z,7.45
2023-05-10T08:35:06.779Z,6.03
2023-05-10T08:37:34.009Z,8.35
2023-05-10T08:40:00.730Z,6.70
2023-05-10T08:42:31.214Z,6.07
2023-05-10T08:44:58.750Z,8.68
2023-05-10T08:47:26.270Z,7.40
2023-05-10T08:49:53.441Z,7.35
2023-05-10T08:52:20.872Z,9.30
2023-05-10T08:54:47.899Z,7.85
2023-05-10T08:57:14.524Z,4.93
2023-05-10T08:59:41.059Z,5.35
2023-05-10T09:02:12.544Z,7.60
2023-05-10T09:04:39.108Z,6.22
2023-05-10T09:07:05.913Z,7.00
2023-05-10T09:09:32.472Z,8.13
2023-05-10T09:11:59.068Z,6.60
2023-05-10T09:14:26.033Z,6.97
2023-05-10T09:16:54.796Z,4.90
2023-05-10T09:19:21.362Z,6.70
2023-05-10T09:21:47.879Z,11.35
2023-05-10T09:24:14.420Z,11.82
2023-05-10T09:26:49.755Z,20.25
2023-05-10T09:29:17.767Z,8.85
2023-05-10T09:31:52.606Z,9.65
2023-05-10T09:34:29.118Z,11.30
2023-05-10T09:36:58.434Z,6.90
2023-05-10T09:39:34.796Z,8.05
2023-05-10T09:42:07.313Z,8.93
2023-05-10T09:44:34.666Z,6.38
2023-05-10T09:47:02.633Z,9.63
2023-05-10T09:49:29.575Z,7.15
2023-05-10T09:52:04.618Z,8.10
2023-05-10T09:54:31.799Z,6.85
2023-05-10T09:56:58.374Z,7.40
2023-05-10T09:59:28.964Z,11.18
2023-05-10T10:02:00.438Z,8.75
2023-05-10T10:04:28.256Z,9.85
2023-05-10T10:07:05.484Z,9.90
2023-05-10T10:09:33.547Z,8.35
2023-05-10T10:12:01.698Z,9.07
2023-05-10T10:14:29.779Z,9.23
2023-05-10T10:17:07.672Z,9.65
2023-05-10T10:19:37.108Z,11.98
2023-05-10T10:22:04.154Z,9.25
2023-05-10T10:24:31.104Z,8.98
2023-05-10T10:27:06.124Z,7.68
2023-05-10T10:29:40.532Z,10.13
2023-05-10T10:32:20.558Z,12.48
2023-05-10T10:34:47.577Z,11.68
2023-05-10T10:37:14.493Z,12.57
2023-05-10T10:39:41.511Z,9.88
2023-05-10T10:42:08.204Z,13.75
2023-05-10T10:44:38.816Z,12.45
2023-05-10T10:47:12.501Z,11.02
2023-05-10T10:49:45.468Z,9.52
2023-05-10T10:52:29.386Z,10.60
2023-05-10T10:55:03.631Z,9.70
2023-05-10T10:57:33.940Z,8.52
2023-05-10T11:00:22.010Z,12.68
2023-05-10T11:02:52.560Z,11.70
2023-05-10T11:05:39.525Z,11.18
2023-05-10T11:08:17.038Z,11.43
2023-05-10T11:11:00.451Z,10.85
2023-05-10T11:13:45.850Z,12.60
2023-05-10T11:16:26.405Z,12.25
2023-05-10T11:19:01.005Z,10.75
2023-05-10T11:21:27.762Z,11.48
2023-05-10T11:23:57.540Z,13.00
2023-05-10T11:26:27.111Z,11.52
2023-05-10T11:31:27.483Z,10.65
2023-05-10T11:33:59.375Z,12.40
2023-05-10T11:36:28.680Z,10.95
2023-05-10T11:38:56.951Z,13.35
2023-05-10T11:41:25.295Z,9.30
2023-05-10T11:43:53.972Z,10.05
2023-05-10T11:46:23.704Z,13.05
2023-05-10T11:48:52.178Z,10.15
2023-05-10T11:51:23.331Z,9.75
2023-05-10T11:53:51.477Z,9.63
2023-05-10T11:56:18.058Z,10.35
2023-05-10T11:58:44.724Z,8.25
2023-05-10T12:01:11.875Z,9.48
2023-05-10T12:03:38.827Z,11.88
2023-05-10T12:06:06.277Z,9.48
2023-05-10T12:08:32.782Z,8.68
2023-05-10T12:11:07.887Z,8.68
2023-05-10T12:13:41.221Z,10.32
2023-05-10T12:16:18.323Z,9.80
2023-05-10T12:18:45.687Z,9.93
2023-05-10T12:21:13.240Z,9.68
2023-05-10T12:23:40.579Z,10.45
2023-05-10T12:26:07.613Z,8.43
2023-05-10T12:28:34.333Z,9.00
2023-05-10T12:31:01.100Z,9.57
2023-05-10T12:33:27.573Z,11.65
2023-05-10T12:35:57.183Z,10.30
2023-05-10T12:38:30.527Z,8.60
2023-05-10T12:41:02.415Z,11.25
2023-05-10T12:43:29.176Z,11.60
2023-05-10T12:45:55.885Z,7.28
2023-05-10T12:48:22.682Z,7.35
2023-05-10T12:50:49.399Z,9.00
2023-05-10T12:53:18.906Z,8.50
2023-05-10T12:58:15.796Z,6.63
2023-05-10T13:03:14.103Z,7.28
2023-05-10T13:05:40.677Z,6.43
2023-05-10T13:08:07.230Z,6.40
2023-05-10T13:10:33.686Z,7.07
2023-05-10T13:13:00.382Z,6.53
2023-05-10T13:15:27.625Z,4.88
2023-05-10T13:17:54.985Z,6.85
2023-05-10T13:20:21.849Z,5.90
2023-05-10T13:22:49.188Z,6.72
2023-05-10T13:25:16.972Z,6.18
2023-05-10T13:27:43.754Z,6.72
2023-05-10T13:30:10.686Z,5.88
2023-05-10T13:32:37.234Z,5.93
2023-05-10T13:35:04.247Z,6.70
2023-05-10T13:37:31.805Z,8.00
2023-05-10T13:39:58.459Z,5.80
2023-05-10T13:42:24.950Z,5.82
2023-05-10T13:44:52.235Z,5.22
2023-05-10T13:47:19.122Z,5.32
2023-05-10T13:49:45.791Z,5.50
2023-05-10T13:52:12.952Z,6.20
2023-05-10T13:54:39.958Z,6.93
2023-05-10T13:57:07.497Z,5.50
2023-05-10T13:59:34.152Z,6.22
2023-05-10T14:02:03.513Z,6.03
2023-05-10T14:06:57.534Z,4.28
2023-05-10T14:09:24.210Z,5.65
2023-05-10T14:11:50.953Z,5.30
2023-05-10T14:14:17.672Z,5.03
2023-05-10T14:16:45.487Z,5.15
2023-05-10T14:19:12.189Z,4.60
2023-05-10T14:21:40.090Z,4.43
2023-05-10T14:24:08.122Z,3.72
2023-05-10T14:26:37.459Z,5.95
2023-05-10T14:29:03.961Z,3.80
2023-05-10T14:31:31.220Z,5.20
2023-05-10T14:33:58.663Z,4.82
2023-05-10T14:36:25.232Z,4.10
2023-05-10T14:38:53.653Z,4.88
2023-05-10T14:41:20.161Z,4.03
2023-05-10T14:43:46.912Z,3.70
2023-05-10T14:46:13.685Z,4.53
2023-05-10T14:48:40.366Z,4.20
2023-05-10T14:51:07.562Z,5.80
2023-05-10T14:53:34.393Z,4.63
2023-05-10T14:56:02.245Z,5.95
2023-05-10T14:58:28.864Z,4.60
2023-05-10T15:00:55.427Z,4.10
2023-05-10T15:03:22.386Z,3.88
2023-05-10T15:05:49.458Z,5.63
2023-05-10T15:08:15.951Z,4.72
2023-05-10T15:10:42.549Z,4.80
2023-05-10T15:13:09.052Z,4.53
2023-05-10T15:15:35.622Z,5.75
2023-05-10T15:18:02.435Z,5.30
2023-05-10T15:20:29.123Z,4.82
2023-05-10T15:22:55.665Z,4.93
2023-05-10T15:25:22.265Z,5.90
2023-05-10T15:27:49.060Z,3.97
2023-05-10T15:30:15.665Z,4.35
2023-05-10T15:32:42.234Z,3.63
2023-05-10T15:35:11.532Z,5.63
2023-05-10T15:37:38.715Z,4.93
2023-05-10T15:40:07.163Z,5.40
2023-05-10T15:42:33.836Z,7.28
2023-05-10T15:45:00.310Z,5.32
2023-05-10T15:47:28.460Z,4.53
2023-05-10T15:49:54.960Z,4.57
2023-05-10T15:52:22.925Z,2.80
2023-05-10T15:54:50.053Z,2.85
2023-05-10T15:57:17.050Z,4.03
2023-05-10T15:59:43.807Z,8.10
2023-05-10T16:02:11.008Z,2.80
2023-05-10T16:04:37.844Z,3.03
2023-05-10T16:07:04.339Z,2.38
2023-05-10T16:09:30.816Z,4.05
2023-05-10T16:11:57.434Z,4.45
2023-05-10T16:14:24.660Z,2.70
2023-05-10T16:16:51.540Z,3.95
2023-05-10T16:19:18.346Z,2.88
2023-05-10T16:21:45.155Z,2.60
2023-05-10T16:24:11.680Z,4.13
2023-05-10T16:26:40.906Z,3.35
2023-05-10T16:31:36.392Z,5.22
2023-05-10T16:34:03.237Z,3.13
2023-05-10T16:36:30.387Z,2.88
2023-05-10T16:38:57.078Z,4.38
2023-05-10T16:41:23.708Z,3.28
2023-05-10T16:43:50.440Z,3.35
2023-05-10T16:46:17.234Z,3.08
2023-05-10T16:48:44.088Z,3.97
2023-05-10T16:51:10.778Z,6.80
2023-05-10T16:53:37.754Z,3.72
2023-05-10T16:56:04.554Z,3.50
2023-05-10T16:58:31.233Z,3.88
2023-05-10T17:00:57.944Z,4.10
2023-05-10T17:03:24.721Z,5.88
2023-05-10T17:05:51.570Z,3.50
2023-05-10T17:08:18.254Z,2.90
2023-05-10T17:10:44.969Z,3.47
2023-05-10T17:13:11.661Z,3.33
2023-05-10T17:15:39.523Z,3.95
2023-05-10T17:18:07.426Z,2.90
2023-05-10T17:20:34.388Z,4.85
2023-05-10T17:23:02.595Z,2.90
2023-05-10T17:25:29.297Z,3.10
2023-05-10T17:27:56.000Z,3.83
2023-05-10T17:30:26.291Z,3.55
2023-05-10T17:32:54.176Z,3.58
2023-05-10T17:35:21.274Z,3.40
2023-05-10T17:37:48.022Z,4.30
2023-05-10T17:40:14.951Z,4.20
2023-05-10T17:42:41.850Z,3.47
2023-05-10T17:45:09.313Z,3.53
2023-05-10T17:47:36.085Z,2.72
2023-05-10T17:50:02.912Z,3.67
2023-05-10T17:55:12.492Z,3.22
2023-05-10T17:57:39.346Z,3.22
2023-05-10T18:00:08.601Z,2.72
2023-05-10T18:02:36.635Z,3.50
2023-05-10T18:05:04.272Z,3.33
2023-05-10T18:07:31.338Z,3.53
2023-05-10T18:09:58.435Z,2.78
2023-05-10T18:12:25.483Z,2.65
2023-05-10T18:14:52.126Z,3.25
2023-05-10T18:17:18.891Z,4.65
2023-05-10T18:19:45.554Z,1.48
2023-05-10T18:22:12.555Z,1.70
2023-05-10T18:24:40.112Z,1.30
2023-05-10T18:27:10.154Z,2.03
2023-05-10T18:29:37.349Z,1.33
2023-05-10T18:32:04.464Z,1.10
2023-05-10T18:34:31.260Z,1.20
2023-05-10T18:36:58.028Z,1.45
2023-05-10T18:39:24.932Z,1.13
2023-05-10T18:41:51.724Z,1.30
2023-05-10T18:44:19.071Z,1.25
2023-05-10T18:46:46.237Z,2.38
2023-05-10T18:49:13.164Z,1.20
2023-05-10T18:51:40.058Z,2.55
2023-05-10T18:54:07.260Z,1.08
2023-05-10T18:56:33.909Z,1.35
2023-05-10T18:59:00.716Z,2.20
2023-05-10T19:01:27.527Z,1.05
2023-05-10T19:03:54.219Z,1.00
2023-05-10T19:06:21.084Z,0.82
2023-05-10T19:08:47.725Z,0.93
2023-05-10T19:11:14.413Z,1.05
2023-05-10T19:13:41.036Z,1.05
2023-05-10T19:16:12.478Z,1.17
2023-05-10T19:18:39.771Z,1.20
2023-05-10T19:21:08.068Z,0.88
2023-05-10T19:23:35.125Z,1.27
2023-05-10T19:26:01.821Z,1.27
2023-05-10T19:28:28.560Z,0.90
2023-05-10T19:30:55.235Z,1.10
2023-05-10T19:33:22.196Z,0.93
2023-05-10T19:35:52.537Z,0.98
2023-05-10T19:38:23.043Z,1.08
2023-05-10T19:40:50.756Z,1.20
2023-05-10T19:43:17.744Z,2.83
2023-05-10T19:45:44.433Z,1.85
2023-05-10T19:48:11.274Z,0.80
2023-05-10T19:50:38.418Z,1.25
2023-05-10T19:53:05.091Z,1.42
2023-05-10T19:55:32.464Z,1.15
2023-05-10T19:58:02.366Z,1.38
2023-05-10T20:00:29.249Z,1.25
2023-05-10T20:02:55.946Z,1.20
2023-05-10T20:05:22.754Z,1.08
2023-05-10T20:07:49.475Z,1.13
2023-05-10T20:10:17.094Z,1.20
2023-05-10T20:12:52.219Z,5.43
2023-05-10T20:15:20.981Z,1.27
2023-05-10T20:17:48.581Z,1.15
2023-05-10T20:20:18.352Z,1.35
2023-05-10T20:22:45.217Z,1.10
2023-05-10T20:25:12.341Z,1.23
2023-05-10T20:27:38.929Z,1.00
2023-05-10T20:30:06.374Z,2.47
2023-05-10T20:32:34.225Z,1.25
2023-05-10T20:35:01.406Z,1.05
2023-05-10T20:37:28.099Z,1.25
2023-05-10T20:39:55.124Z,1.15
2023-05-10T20:42:22.153Z,1.52
2023-05-10T20:44:49.655Z,0.95
2023-05-10T20:47:16.733Z,1.15
2023-05-10T20:49:43.402Z,2.17
2023-05-10T20:52:10.305Z,1.08
2023-05-10T20:54:36.786Z,1.67
2023-05-10T20:57:03.332Z,1.05
2023-05-10T20:59:29.798Z,1.75
2023-05-10T21:01:57.179Z,0.98
2023-05-10T21:04:25.379Z,0.98
2023-05-10T21:06:52.883Z,1.20
2023-05-10T21:09:19.504Z,0.80
2023-05-10T21:11:46.110Z,1.00
2023-05-10T21:14:12.753Z,1.40
2023-05-10T21:16:39.316Z,3.25
2023-05-10T21:19:07.391Z,1.50
2023-05-10T21:21:34.240Z,1.00
2023-05-10T21:24:00.798Z,1.20
2023-05-10T21:26:27.335Z,1.45
2023-05-10T21:28:53.832Z,1.30
2023-05-10T21:31:20.455Z,2.50
2023-05-10T21:33:47.070Z,1.38
2023-05-10T21:36:13.933Z,1.30
2023-05-10T21:38:40.977Z,1.40
2023-05-10T21:41:08.029Z,1.50
2023-05-10T21:43:34.638Z,1.10
2023-05-10T21:46:01.427Z,1.73
2023-05-10T21:48:28.202Z,1.58
2023-05-10T21:50:54.673Z,1.42
2023-05-10T21:53:22.191Z,1.70
2023-05-10T21:55:48.939Z,5.50
2023-05-10T21:58:15.789Z,1.38
2023-05-10T22:00:42.646Z,1.15
2023-05-10T22:03:09.365Z,1.67
2023-05-10T22:05:36.086Z,1.67
2023-05-10T22:08:02.824Z,1.10
2023-05-10T22:10:29.506Z,1.48
2023-05-10T22:12:57.101Z,1.25
2023-05-10T22:15:23.800Z,2.55
2023-05-10T22:17:50.613Z,2.05
2023-05-10T22:20:17.812Z,1.85
2023-05-10T22:22:45.214Z,1.40
2023-05-10T22:25:11.881Z,2.55
2023-05-10T22:27:38.561Z,2.45
2023-05-10T22:30:06.540Z,1.50
2023-05-10T22:32:33.250Z,1.75
2023-05-10T22:34:59.942Z,1.38
2023-05-10T22:37:26.778Z,2.25
2023-05-10T22:39:53.688Z,3.22
2023-05-10T22:42:20.399Z,3.03
2023-05-10T22:44:47.103Z,2.35
2023-05-10T22:47:13.761Z,1.80
2023-05-10T22:49:40.378Z,1.95
2023-05-10T22:52:07.170Z,1.30
2023-05-10T22:54:35.624Z,2.35
2023-05-10T22:57:03.169Z,1.20
2023-05-10T22:59:29.893Z,3.30
2023-05-10T23:01:56.659Z,3.78
2023-05-10T23:04:23.362Z,3.00
2023-05-10T23:06:50.061Z,4.03
2023-05-10T23:09:16.916Z,2.80
2023-05-10T23:11:43.619Z,1.85
2023-05-10T23:14:10.235Z,5.10
2023-05-10T23:16:37.010Z,2.67
2023-05-10T23:19:03.781Z,2.58
2023-05-10T23:21:32.108Z,1.70
2023-05-10T23:23:59.140Z,4.10
2023-05-10T23:26:25.909Z,7.22
2023-05-10T23:28:52.582Z,4.70
2023-05-10T23:31:19.320Z,5.63
2023-05-10T23:33:45.981Z,6.82
2023-05-10T23:36:12.617Z,5.60
2023-05-10T23:38:39.493Z,6.90
2023-05-10T23:41:06.204Z,6.35
2023-05-10T23:43:33.016Z,7.78
2023-05-10T23:45:59.789Z,6.35
2023-05-10T23:48:26.704Z,6.82
2023-05-10T23:50:53.469Z,5.55
2023-05-10T23:53:20.164Z,6.85
2023-05-10T23:55:46.922Z,6.18
2023-05-10T23:58:13.719Z,6.30
